Time;durP1;ratioP1;P1;durP2;ratioP2;P2;SDS_P1;SDS_P2;PMS_P1;PMS_P2;Temp;Humidity;BMP_temperature;BMP_pressure;BME280_temperature;BME280_humidity;BME280_pressure;Samples;Min_cycle;Max_cycle;Signal;HPM_P1;HPM_P2
2022/06/25 00:01:09;;;;;;;15.90;14.23;;;21.60;99.90;;;;;;5088996;28;20386;-59
2022/06/25 00:03:35;;;;;;;19.87;17.77;;;21.70;99.90;;;;;;5086590;28;20389;-59
2022/06/25 00:06:00;;;;;;;17.13;14.67;;;21.50;99.90;;;;;;5084440;28;20512;-59
2022/06/25 00:08:26;;;;;;;18.17;15.60;;;21.60;99.90;;;;;;5084273;28;20470;-59
2022/06/25 00:10:52;;;;;;;19.33;15.67;;;21.60;99.90;;;;;;5086125;28;20452;-59
2022/06/25 00:13:19;;;;;;;17.40;15.80;;;21.60;99.90;;;;;;5083488;28;20406;-59
2022/06/25 00:15:45;;;;;;;19.35;16.35;;;21.60;99.90;;;;;;5082687;28;20446;-65
2022/06/25 00:18:11;;;;;;;19.40;16.40;;;21.50;99.90;;;;;;5082774;28;20704;-65
2022/06/25 00:20:37;;;;;;;16.30;14.63;;;21.60;99.90;;;;;;5081866;28;20658;-64
2022/06/25 00:23:02;;;;;;;17.95;15.98;;;21.60;99.90;;;;;;5083213;28;20465;-65
2022/06/25 00:25:28;;;;;;;20.10;15.00;;;21.60;99.90;;;;;;5083827;28;20501;-65
2022/06/25 00:27:54;;;;;;;19.70;14.97;;;21.60;99.90;;;;;;5086093;28;20436;-65
2022/06/25 00:30:19;;;;;;;16.30;14.60;;;21.60;99.90;;;;;;5087677;28;20425;-65
2022/06/25 00:32:45;;;;;;;18.20;15.97;;;21.60;99.90;;;;;;5087190;28;20386;-65
2022/06/25 00:35:11;;;;;;;16.58;14.85;;;21.50;99.90;;;;;;5084662;28;20762;-66
2022/06/25 00:37:36;;;;;;;17.58;15.07;;;21.50;99.90;;;;;;5087594;28;20381;-65
2022/06/25 00:40:03;;;;;;;18.57;15.37;;;21.50;99.90;;;;;;5088447;28;20382;-65
2022/06/25 00:42:28;;;;;;;20.08;16.52;;;21.60;99.90;;;;;;5085228;28;20545;-66
2022/06/25 00:44:55;;;;;;;18.27;15.60;;;21.50;99.90;;;;;;5087626;28;20672;-66
2022/06/25 00:47:21;;;;;;;16.58;14.60;;;21.50;99.90;;;;;;5087106;28;20474;-65
2022/06/25 00:49:47;;;;;;;17.77;15.88;;;21.60;99.90;;;;;;5086831;28;20439;-65
2022/06/25 00:52:15;;;;;;;17.15;15.35;;;21.60;99.90;;;;;;5085557;28;20413;-65
2022/06/25 00:54:58;;;;;;;18.48;16.63;;;21.70;99.90;;;;;;5088010;28;20619;-65
2022/06/25 00:57:28;;;;;;;17.07;14.90;;;21.60;99.90;;;;;;5088842;28;20402;-65
2022/06/25 01:00:01;;;;;;;17.77;15.90;;;21.60;99.90;;;;;;5089827;28;20805;-66
2022/06/25 01:02:26;;;;;;;19.67;17.50;;;21.60;99.90;;;;;;5089694;28;20447;-65
2022/06/25 01:04:52;;;;;;;19.75;17.65;;;21.60;99.90;;;;;;5087021;28;20755;-65
2022/06/25 01:07:18;;;;;;;22.23;18.13;;;21.50;99.90;;;;;;5089664;28;20390;-65
2022/06/25 01:09:49;;;;;;;18.17;16.42;;;21.50;99.90;;;;;;5089427;28;20416;-65
2022/06/25 01:12:14;;;;;;;22.13;18.38;;;21.40;99.90;;;;;;5091073;28;20393;-65
2022/06/25 01:14:40;;;;;;;21.00;18.85;;;21.30;99.90;;;;;;5093901;28;20649;-65
2022/06/25 01:17:07;;;;;;;21.70;19.20;;;21.20;99.90;;;;;;5093211;28;20393;-65
2022/06/25 01:19:35;;;;;;;21.50;19.13;;;21.20;99.90;;;;;;5091513;28;20386;-65
2022/06/25 01:22:08;;;;;;;19.17;17.20;;;21.30;99.90;;;;;;5090117;28;20434;-65
2022/06/25 01:24:34;;;;;;;19.75;17.63;;;21.30;99.90;;;;;;5090590;28;20416;-65
2022/06/25 01:27:00;;;;;;;20.60;18.00;;;21.30;99.90;;;;;;5089647;28;20444;-65
2022/06/25 01:29:26;;;;;;;19.63;17.63;;;21.20;99.90;;;;;;5090226;28;20416;-65
2022/06/25 01:31:52;;;;;;;19.83;17.70;;;21.20;99.90;;;;;;5090680;28;20477;-65
2022/06/25 01:34:18;;;;;;;20.83;18.70;;;21.10;99.90;;;;;;5091339;28;20413;-64
2022/06/25 01:36:44;;;;;;;20.63;18.43;;;21.10;99.90;;;;;;5093797;28;20409;-64
2022/06/25 01:39:10;;;;;;;20.87;18.87;;;21.10;99.90;;;;;;5094102;28;20385;-65
2022/06/25 01:41:36;;;;;;;21.40;19.27;;;21.10;99.90;;;;;;5093504;28;20409;-65
2022/06/25 01:44:02;;;;;;;22.00;19.75;;;21.10;99.90;;;;;;5095221;28;20393;-65
2022/06/25 01:46:28;;;;;;;22.85;20.48;;;21.20;99.90;;;;;;5094240;28;20420;-65
2022/06/25 01:48:53;;;;;;;22.00;18.80;;;21.10;99.90;;;;;;5094923;28;20463;-65
2022/06/25 01:51:20;;;;;;;20.33;18.23;;;21.10;99.90;;;;;;5093967;28;20742;-65
2022/06/25 01:53:45;;;;;;;18.90;17.00;;;21.10;99.90;;;;;;5092895;28;20385;-65
2022/06/25 01:56:11;;;;;;;20.92;18.92;;;21.20;99.90;;;;;;5092516;28;20545;-65
2022/06/25 01:58:37;;;;;;;21.33;19.10;;;21.20;99.90;;;;;;5094932;28;20393;-65
2022/06/25 02:01:04;;;;;;;23.42;19.92;;;21.00;99.90;;;;;;5094885;28;20377;-65
2022/06/25 02:03:29;;;;;;;20.88;18.77;;;20.90;99.90;;;;;;5094898;28;20378;-65
2022/06/25 02:05:58;;;;;;;22.60;20.13;;;20.90;99.90;;;;;;5094432;28;20495;-65
2022/06/25 02:08:29;;;;;;;19.27;17.43;;;20.90;99.90;;;;;;5096613;28;20378;-65
2022/06/25 02:10:56;;;;;;;21.60;19.40;;;20.90;99.90;;;;;;5096269;28;20394;-65
2022/06/25 02:13:22;;;;;;;21.87;19.77;;;20.90;99.90;;;;;;5094787;28;20381;-65
2022/06/25 02:15:48;;;;;;;20.75;18.65;;;20.90;99.90;;;;;;5094116;28;20386;-65
2022/06/25 02:18:13;;;;;;;21.95;19.33;;;20.80;99.90;;;;;;5095502;28;20477;-65
2022/06/25 02:20:40;;;;;;;21.03;18.93;;;20.80;99.90;;;;;;5093606;28;20450;-65
2022/06/25 02:23:07;;;;;;;21.52;19.25;;;20.80;99.90;;;;;;5090568;28;20825;-65
2022/06/25 02:25:32;;;;;;;22.37;19.27;;;20.70;99.90;;;;;;5091479;28;20389;-65
2022/06/25 02:27:58;;;;;;;20.13;18.00;;;20.70;99.90;;;;;;5091777;28;20419;-65
2022/06/25 02:30:24;;;;;;;23.05;20.45;;;20.80;99.90;;;;;;5091453;28;20793;-65
2022/06/25 02:32:49;;;;;;;19.27;17.33;;;20.70;99.90;;;;;;5091164;28;20655;-65
2022/06/25 02:35:15;;;;;;;19.47;17.50;;;20.80;99.90;;;;;;5091710;28;20400;-64
2022/06/25 02:37:41;;;;;;;19.52;17.52;;;20.80;99.90;;;;;;5093549;28;20478;-65
2022/06/25 02:40:07;;;;;;;21.43;19.23;;;20.90;99.90;;;;;;5093699;28;20405;-65
2022/06/25 02:42:37;;;;;;;22.52;20.23;;;20.70;99.90;;;;;;5093930;28;20405;-65
2022/06/25 02:45:03;;;;;;;24.15;21.63;;;20.60;99.90;;;;;;5093524;28;20752;-65
2022/06/25 02:47:29;;;;;;;24.10;21.70;;;20.50;99.90;;;;;;5095393;28;20378;-65
2022/06/25 02:49:55;;;;;;;24.10;20.93;;;20.50;99.90;;;;;;5092676;28;20493;-65
2022/06/25 02:52:20;;;;;;;22.87;20.53;;;20.50;99.90;;;;;;5090850;28;20682;-65
2022/06/25 02:54:46;;;;;;;23.35;21.02;;;20.50;99.90;;;;;;5090275;28;20374;-65
2022/06/25 02:59:56;;;;;;;26.27;23.57;;;20.50;99.90;;;;;;5094027;28;20381;-65
2022/06/25 03:02:22;;;;;;;27.30;24.57;;;20.40;99.90;;;;;;5091134;28;20374;-65
2022/06/25 03:04:47;;;;;;;26.58;23.90;;;20.50;99.90;;;;;;5090016;28;20575;-65
2022/06/25 03:07:25;;;;;;;27.63;24.73;;;20.40;99.90;;;;;;5091057;28;20390;-65
2022/06/25 03:09:51;;;;;;;28.25;25.45;;;20.40;99.90;;;;;;5091736;28;20398;-65
2022/06/25 03:12:17;;;;;;;27.77;24.70;;;20.40;99.90;;;;;;5091893;28;20451;-65
2022/06/25 03:14:42;;;;;;;30.98;27.83;;;20.40;99.90;;;;;;5091353;28;20382;-65
2022/06/25 03:17:09;;;;;;;27.63;24.70;;;20.40;99.90;;;;;;5092839;28;20658;-65
2022/06/25 03:19:35;;;;;;;29.27;26.37;;;20.40;99.90;;;;;;5092688;28;20404;-65
2022/06/25 03:22:01;;;;;;;28.13;25.23;;;20.40;99.90;;;;;;5093090;28;20378;-65
2022/06/25 03:24:26;;;;;;;29.70;26.65;;;20.40;99.90;;;;;;5092250;28;20443;-64
2022/06/25 03:26:52;;;;;;;32.97;29.52;;;20.40;99.90;;;;;;5092035;28;20394;-66
2022/06/25 03:29:18;;;;;;;33.20;29.90;;;20.30;99.90;;;;;;5092253;28;20378;-65
2022/06/25 03:31:43;;;;;;;29.98;26.98;;;20.30;99.90;;;;;;5091517;28;20402;-65
2022/06/25 03:34:09;;;;;;;35.58;31.80;;;20.20;99.90;;;;;;5092107;28;20470;-66
2022/06/25 03:36:35;;;;;;;34.87;31.27;;;20.10;99.90;;;;;;5092946;28;20404;-65
2022/06/25 03:39:02;;;;;;;32.10;28.85;;;20.10;99.90;;;;;;5093664;28;20525;-65
2022/06/25 03:41:35;;;;;;;36.65;32.83;;;20.10;99.90;;;;;;5093844;28;20410;-65
2022/06/25 03:44:03;;;;;;;36.17;32.30;;;20.10;99.90;;;;;;5093902;28;20386;-65
2022/06/25 03:46:29;;;;;;;36.40;32.50;;;20.20;99.90;;;;;;5092836;28;20472;-65
2022/06/25 03:48:54;;;;;;;36.38;32.60;;;20.10;99.90;;;;;;5091884;28;20471;-65
2022/06/25 03:51:20;;;;;;;36.07;32.37;;;20.00;99.90;;;;;;5092644;28;20436;-65
2022/06/25 03:53:46;;;;;;;36.63;32.83;;;20.00;99.90;;;;;;5092496;28;20669;-65
2022/06/25 03:56:12;;;;;;;32.15;28.83;;;19.90;99.90;;;;;;5094348;28;20382;-65
2022/06/25 03:58:37;;;;;;;35.50;31.70;;;20.00;99.90;;;;;;5092209;28;20370;-65
2022/06/25 04:01:03;;;;;;;34.38;30.92;;;20.00;99.90;;;;;;5092209;28;20390;-65
2022/06/25 04:03:29;;;;;;;33.90;30.47;;;20.00;99.90;;;;;;5090294;28;20401;-66
2022/06/25 04:05:55;;;;;;;31.40;28.20;;;20.10;99.90;;;;;;5091652;28;20421;-65
2022/06/25 04:08:21;;;;;;;31.30;28.10;;;20.10;99.90;;;;;;5091618;28;20642;-65
2022/06/25 04:10:46;;;;;;;31.52;28.20;;;20.10;99.90;;;;;;5090571;28;20841;-65
2022/06/25 04:13:12;;;;;;;31.57;28.30;;;20.20;99.90;;;;;;5089687;28;20785;-65
2022/06/25 04:15:37;;;;;;;33.13;29.83;;;20.20;99.90;;;;;;5089851;28;20439;-65
2022/06/25 04:18:04;;;;;;;32.03;28.67;;;20.20;99.90;;;;;;5090159;28;20386;-65
2022/06/25 04:20:29;;;;;;;29.55;26.63;;;20.10;99.90;;;;;;5088691;28;20804;-65
2022/06/25 04:22:55;;;;;;;28.70;25.87;;;20.20;99.90;;;;;;5087457;28;20607;-65
2022/06/25 04:25:20;;;;;;;30.67;27.50;;;20.20;99.90;;;;;;5087820;28;20483;-65
2022/06/25 04:30:30;;;;;;;30.17;27.20;;;20.30;99.90;;;;;;5090587;28;20405;-64
2022/06/25 04:32:56;;;;;;;29.33;26.27;;;20.20;99.90;;;;;;5088818;28;20382;-65
2022/06/25 04:35:21;;;;;;;31.95;28.55;;;20.20;99.90;;;;;;5089320;28;20369;-65
2022/06/25 04:37:47;;;;;;;29.50;26.57;;;20.20;99.90;;;;;;5088503;28;20409;-65
2022/06/25 04:40:13;;;;;;;29.58;26.58;;;20.20;99.90;;;;;;5086881;28;20386;-65
2022/06/25 04:42:38;;;;;;;28.48;25.42;;;20.30;99.90;;;;;;5087624;28;20416;-65
2022/06/25 04:45:04;;;;;;;29.70;26.73;;;20.20;99.90;;;;;;5089073;28;20378;-65
2022/06/25 04:47:30;;;;;;;27.43;24.30;;;20.30;99.90;;;;;;5090646;28;20409;-65
2022/06/25 04:49:55;;;;;;;27.25;24.55;;;20.30;99.90;;;;;;5088540;28;20433;-65
2022/06/25 04:52:21;;;;;;;27.00;24.23;;;20.30;99.90;;;;;;5087877;28;20402;-65
2022/06/25 04:54:46;;;;;;;29.53;26.53;;;20.30;99.90;;;;;;5088886;28;20788;-65
2022/06/25 04:57:12;;;;;;;26.43;23.93;;;20.30;99.90;;;;;;5087863;28;20632;-65
2022/06/25 04:59:37;;;;;;;25.07;22.47;;;20.20;99.90;;;;;;5084419;28;20374;-65
2022/06/25 05:02:03;;;;;;;25.13;22.67;;;20.30;99.90;;;;;;5084426;28;20378;-65
2022/06/25 05:04:29;;;;;;;27.00;24.30;;;20.30;99.90;;;;;;5083196;28;20381;-65
2022/06/25 05:06:54;;;;;;;25.27;22.77;;;20.20;99.90;;;;;;5082427;28;20413;-65
2022/06/25 05:09:20;;;;;;;26.50;23.80;;;20.30;99.90;;;;;;5082446;28;20668;-65
2022/06/25 05:11:46;;;;;;;25.90;23.40;;;20.30;99.90;;;;;;5079919;28;20542;-65
2022/06/25 05:14:11;;;;;;;21.67;19.48;;;20.30;99.90;;;;;;5081210;28;20400;-65
2022/06/25 05:16:37;;;;;;;25.50;22.80;;;20.30;99.90;;;;;;5081711;28;20374;-65
2022/06/25 05:19:03;;;;;;;23.63;21.25;;;20.40;99.90;;;;;;5080819;28;20384;-65
2022/06/25 05:21:28;;;;;;;22.90;20.60;;;20.40;99.90;;;;;;5082693;28;20641;-65
2022/06/25 05:23:54;;;;;;;22.50;20.30;;;20.40;99.90;;;;;;5085030;28;20397;-65
2022/06/25 05:26:20;;;;;;;22.77;20.58;;;20.40;99.90;;;;;;5084983;28;20419;-65
2022/06/25 05:28:45;;;;;;;21.75;19.45;;;20.40;99.90;;;;;;5085498;28;20451;-65
2022/06/25 05:31:11;;;;;;;21.83;19.63;;;20.40;99.90;;;;;;5086142;28;20960;-65
2022/06/25 05:33:37;;;;;;;22.17;19.77;;;20.50;99.90;;;;;;5084543;28;20378;-66
2022/06/25 05:36:03;;;;;;;25.77;22.13;;;20.50;99.90;;;;;;5085899;28;20702;-65
2022/06/25 05:38:29;;;;;;;22.17;20.00;;;20.40;99.90;;;;;;5086873;28;20382;-64
2022/06/25 05:40:55;;;;;;;20.58;18.60;;;20.40;99.90;;;;;;5085458;28;20626;-65
2022/06/25 05:43:22;;;;;;;19.27;17.27;;;20.50;99.90;;;;;;5084743;28;20410;-65
2022/06/25 05:45:48;;;;;;;16.80;15.10;;;20.50;99.90;;;;;;5084189;28;20421;-65
2022/06/25 05:48:13;;;;;;;19.33;16.70;;;20.60;99.90;;;;;;5081633;28;20421;-65
2022/06/25 05:50:39;;;;;;;16.47;14.77;;;20.50;99.90;;;;;;5081634;28;20444;-64
2022/06/25 05:53:04;;;;;;;15.30;13.70;;;20.60;99.90;;;;;;5081145;28;20384;-65
2022/06/25 05:55:30;;;;;;;16.07;14.27;;;20.60;99.90;;;;;;5082841;28;20661;-65
2022/06/25 05:57:55;;;;;;;15.75;14.25;;;20.60;99.90;;;;;;5082159;28;20420;-65
2022/06/25 06:00:21;;;;;;;14.80;12.93;;;20.70;99.90;;;;;;5081997;28;20390;-65
2022/06/25 06:02:46;;;;;;;13.00;10.82;;;20.70;99.90;;;;;;5087181;28;20544;-65
2022/06/25 06:05:12;;;;;;;12.30;11.10;;;20.70;99.90;;;;;;5087559;28;20709;-65
2022/06/25 06:07:38;;;;;;;12.73;11.43;;;20.80;99.90;;;;;;5087733;28;20819;-65
2022/06/25 06:10:05;;;;;;;14.45;12.82;;;20.90;99.90;;;;;;5087673;28;20398;-65
2022/06/25 06:12:30;;;;;;;14.07;12.57;;;20.90;99.90;;;;;;5087526;28;20393;-65
2022/06/25 06:14:56;;;;;;;13.43;12.00;;;20.90;99.90;;;;;;5084790;28;20406;-65
2022/06/25 06:17:22;;;;;;;13.52;12.23;;;21.00;99.90;;;;;;5091771;28;20485;-65
2022/06/25 06:19:48;;;;;;;13.48;12.15;;;21.00;99.90;;;;;;5094168;28;20389;-65
2022/06/25 06:22:14;;;;;;;13.30;12.10;;;21.10;99.90;;;;;;5091595;28;20485;-65
2022/06/25 06:24:39;;;;;;;12.30;11.20;;;21.10;99.90;;;;;;5083488;28;20673;-64
2022/06/25 06:27:05;;;;;;;13.33;12.13;;;21.20;99.90;;;;;;5084907;28;20840;-65
2022/06/25 06:29:31;;;;;;;11.75;10.57;;;21.20;99.90;;;;;;5083130;28;20817;-64
2022/06/25 06:31:56;;;;;;;11.55;10.07;;;21.30;99.90;;;;;;5087842;28;20502;-65
2022/06/25 06:34:22;;;;;;;10.77;9.37;;;21.30;99.90;;;;;;5081264;28;20398;-65
2022/06/25 06:36:48;;;;;;;9.43;8.52;;;21.30;99.90;;;;;;5073782;28;21078;-65
2022/06/25 06:39:14;;;;;;;8.82;8.02;;;21.30;99.90;;;;;;5072942;28;20409;-65
2022/06/25 06:41:40;;;;;;;7.90;7.20;;;21.40;99.90;;;;;;5065213;28;20408;-65
2022/06/25 06:44:06;;;;;;;6.30;5.60;;;21.50;99.90;;;;;;5067325;28;20675;-65
2022/06/25 06:46:31;;;;;;;7.13;6.00;;;21.50;99.90;;;;;;5068153;28;20388;-65
2022/06/25 06:48:57;;;;;;;7.67;6.43;;;21.60;99.90;;;;;;5066659;28;20648;-65
2022/06/25 06:51:23;;;;;;;6.97;5.68;;;21.60;99.90;;;;;;5064706;28;20419;-65
2022/06/25 06:53:48;;;;;;;5.67;5.17;;;21.60;99.90;;;;;;5061387;28;20391;-65
2022/06/25 06:56:14;;;;;;;5.53;4.63;;;21.60;99.90;;;;;;5095095;28;20484;-65
2022/06/25 06:58:39;;;;;;;6.15;5.55;;;21.70;99.90;;;;;;5062206;28;20775;-65
2022/06/25 07:01:05;;;;;;;6.70;4.47;;;21.80;99.90;;;;;;5063579;28;20704;-65
2022/06/25 07:03:30;;;;;;;4.72;4.18;;;21.80;99.90;;;;;;5064044;28;20387;-65
2022/06/25 07:05:56;;;;;;;5.57;3.80;;;21.90;99.90;;;;;;5062457;28;20477;-65
2022/06/25 07:08:22;;;;;;;6.50;4.25;;;21.90;99.90;;;;;;5063828;28;20392;-65
2022/06/25 07:10:48;;;;;;;4.03;3.43;;;21.90;99.90;;;;;;5064520;28;20672;-65
2022/06/25 07:13:13;;;;;;;2.80;2.60;;;21.90;99.90;;;;;;5062837;28;20394;-65
2022/06/25 07:15:39;;;;;;;4.28;3.03;;;22.00;99.90;;;;;;5061522;28;20392;-64
2022/06/25 07:18:05;;;;;;;3.80;3.00;;;22.00;99.90;;;;;;5061504;28;20535;-64
2022/06/25 07:20:31;;;;;;;5.38;3.00;;;22.10;99.90;;;;;;5061898;28;20801;-64
2022/06/25 07:22:57;;;;;;;3.30;2.63;;;22.20;99.90;;;;;;5062164;28;20562;-64
2022/06/25 07:25:22;;;;;;;4.03;2.90;;;22.20;99.90;;;;;;5061060;28;20505;-64
2022/06/25 07:27:48;;;;;;;3.47;2.60;;;22.20;99.90;;;;;;5062194;28;20538;-64
2022/06/25 07:30:14;;;;;;;3.53;3.23;;;22.30;99.90;;;;;;5060310;28;20459;-64
2022/06/25 07:32:40;;;;;;;2.70;2.50;;;22.30;99.90;;;;;;5060908;28;20394;-64
2022/06/25 07:35:06;;;;;;;3.95;3.13;;;22.40;99.90;;;;;;5059740;28;20797;-65
2022/06/25 07:37:31;;;;;;;3.53;3.13;;;22.40;99.90;;;;;;5062464;28;20388;-65
2022/06/25 07:39:57;;;;;;;3.40;2.72;;;22.40;99.90;;;;;;5058993;28;20380;-65
2022/06/25 07:42:23;;;;;;;5.43;3.60;;;22.50;99.90;;;;;;5059465;28;20414;-64
2022/06/25 07:44:49;;;;;;;5.05;3.67;;;22.60;99.90;;;;;;5058869;28;20426;-65
2022/06/25 07:47:14;;;;;;;4.80;3.70;;;22.60;99.90;;;;;;5058566;28;20546;-65
2022/06/25 07:52:25;;;;;;;2.17;2.05;;;22.60;99.90;;;;;;5058829;28;20407;-64
2022/06/25 07:54:51;;;;;;;3.17;2.60;;;22.70;99.90;;;;;;5091813;28;20387;-64
2022/06/25 07:57:17;;;;;;;4.20;3.10;;;22.70;99.90;;;;;;5056782;28;20596;-65
2022/06/25 07:59:43;;;;;;;3.57;3.27;;;22.80;99.90;;;;;;5055927;28;20784;-65
2022/06/25 08:02:09;;;;;;;3.88;3.58;;;22.80;99.90;;;;;;5057365;28;20542;-66
2022/06/25 08:04:35;;;;;;;3.03;2.70;;;22.80;99.90;;;;;;5057747;28;20656;-66
2022/06/25 08:07:01;;;;;;;3.10;2.60;;;22.90;99.90;;;;;;5058639;28;20396;-66
2022/06/25 08:09:26;;;;;;;4.28;3.60;;;22.90;99.90;;;;;;5057590;28;20713;-66
2022/06/25 08:11:52;;;;;;;5.32;4.82;;;23.00;99.90;;;;;;5060309;28;20442;-66
2022/06/25 08:14:18;;;;;;;5.38;4.50;;;23.00;99.90;;;;;;5062000;28;20651;-66
2022/06/25 08:16:43;;;;;;;3.30;3.00;;;22.90;99.90;;;;;;5061359;28;20470;-66
2022/06/25 08:19:09;;;;;;;7.60;5.30;;;23.00;99.90;;;;;;5061994;28;20387;-66
2022/06/25 08:21:35;;;;;;;3.90;3.10;;;23.10;99.90;;;;;;5060390;28;20773;-67
2022/06/25 08:24:01;;;;;;;2.17;2.03;;;23.10;99.90;;;;;;5060038;28;20408;-66
2022/06/25 08:26:26;;;;;;;3.15;2.53;;;23.20;99.90;;;;;;5061090;28;20399;-66
2022/06/25 08:28:52;;;;;;;3.70;3.40;;;23.30;99.90;;;;;;5062147;28;20388;-66
2022/06/25 08:31:17;;;;;;;3.25;2.95;;;23.30;99.90;;;;;;5061336;28;20603;-66
2022/06/25 08:33:44;;;;;;;3.10;2.80;;;23.40;99.90;;;;;;5059799;28;20394;-66
2022/06/25 08:36:10;;;;;;;3.45;3.15;;;23.50;99.90;;;;;;5062428;28;20775;-66
2022/06/25 08:38:36;;;;;;;5.97;3.80;;;23.50;99.90;;;;;;5059396;28;20460;-66
2022/06/25 08:41:02;;;;;;;5.82;4.57;;;23.50;99.90;;;;;;5057442;28;20795;-66
2022/06/25 08:43:29;;;;;;;4.93;4.10;;;23.50;99.90;;;;;;5057943;28;20383;-65
2022/06/25 08:45:55;;;;;;;3.50;3.20;;;23.50;99.90;;;;;;5059495;28;20403;-66
2022/06/25 08:48:23;;;;;;;4.55;4.10;;;23.60;99.90;;;;;;5056667;28;20383;-66
2022/06/25 08:50:50;;;;;;;2.70;2.50;;;23.60;99.90;;;;;;5055131;28;20497;-66
2022/06/25 08:53:16;;;;;;;5.28;4.10;;;23.70;99.90;;;;;;5055862;28;20383;-66
2022/06/25 08:55:44;;;;;;;4.70;4.30;;;23.70;99.90;;;;;;5055171;28;20470;-66
2022/06/25 08:58:12;;;;;;;5.88;5.00;;;23.80;99.90;;;;;;5056713;28;20807;-66
2022/06/25 09:00:39;;;;;;;5.00;4.55;;;24.00;99.90;;;;;;5055384;28;20487;-67
2022/06/25 09:03:07;;;;;;;6.20;5.60;;;24.00;99.90;;;;;;5055588;28;20391;-66
2022/06/25 09:05:35;;;;;;;3.50;3.20;;;24.00;99.90;;;;;;5055825;28;20632;-66
2022/06/25 09:08:05;;;;;;;2.42;2.22;;;23.90;99.90;;;;;;5090386;28;20497;-66
2022/06/25 09:10:31;;;;;;;5.88;5.28;;;24.00;99.90;;;;;;5055734;28;20410;-66
2022/06/25 09:12:59;;;;;;;7.25;4.93;;;24.00;99.90;;;;;;5054043;28;20403;-66
2022/06/25 09:15:34;;;;;;;3.80;3.50;;;24.00;99.90;;;;;;5053791;28;20734;-66
2022/06/25 09:18:07;;;;;;;4.47;4.03;;;24.00;99.90;;;;;;5057769;28;20824;-66
2022/06/25 09:20:33;;;;;;;7.00;5.55;;;24.00;99.90;;;;;;5057417;28;20538;-66
2022/06/25 09:23:02;;;;;;;6.03;5.00;;;24.00;99.90;;;;;;5056123;28;20912;-66
2022/06/25 09:25:30;;;;;;;6.38;4.38;;;24.00;99.90;;;;;;5057504;28;20379;-66
2022/06/25 09:27:57;;;;;;;5.95;5.45;;;24.10;99.90;;;;;;5058331;28;20461;-66
2022/06/25 09:30:26;;;;;;;4.77;4.37;;;24.20;99.90;;;;;;5058549;28;20928;-66
2022/06/25 09:32:56;;;;;;;5.13;4.28;;;24.20;99.90;;;;;;5058372;28;20399;-66
2022/06/25 09:35:36;;;;;;;4.47;4.18;;;24.20;99.90;;;;;;5073363;28;20436;-66
2022/06/25 09:38:03;;;;;;;4.28;3.88;;;24.40;99.90;;;;;;5062107;28;20652;-66
2022/06/25 09:40:29;;;;;;;5.70;4.50;;;24.60;99.90;;;;;;5062262;28;20474;-66
2022/06/25 09:42:56;;;;;;;4.47;4.18;;;24.70;99.90;;;;;;5060389;28;20411;-66
2022/06/25 09:45:22;;;;;;;5.75;5.25;;;24.70;99.90;;;;;;5058873;28;20634;-66
2022/06/25 09:47:48;;;;;;;5.10;4.27;;;24.70;99.90;;;;;;5067127;28;20411;-64
2022/06/25 09:50:16;;;;;;;5.43;4.93;;;24.60;99.90;;;;;;5069920;28;20963;-65
2022/06/25 09:53:01;;;;;;;4.28;3.90;;;24.60;99.90;;;;;;5064723;28;20492;-64
2022/06/25 09:55:32;;;;;;;5.13;4.63;;;24.70;99.90;;;;;;5068435;28;20384;-64
2022/06/25 09:58:00;;;;;;;4.30;3.90;;;24.80;99.90;;;;;;5070357;28;20388;-64
2022/06/25 10:00:27;;;;;;;8.50;6.00;;;24.80;99.90;;;;;;5068650;28;20400;-64
2022/06/25 10:02:56;;;;;;;6.85;6.25;;;24.80;99.90;;;;;;5068843;28;20512;-64
2022/06/25 10:05:29;;;;;;;5.93;5.43;;;24.70;99.90;;;;;;5070938;28;20810;-65
2022/06/25 10:08:01;;;;;;;6.63;6.00;;;24.80;99.90;;;;;;5071035;28;20383;-64
2022/06/25 10:10:31;;;;;;;6.17;5.57;;;24.90;99.90;;;;;;5082792;28;20491;-64
2022/06/25 10:13:00;;;;;;;4.57;4.10;;;24.90;99.90;;;;;;5069230;28;21379;-64
2022/06/25 10:15:26;;;;;;;3.83;3.53;;;24.90;99.90;;;;;;5069415;28;20431;-64
2022/06/25 10:17:53;;;;;;;4.15;3.13;;;25.00;99.90;;;;;;5082967;28;20391;-64
2022/06/25 10:20:18;;;;;;;3.75;3.25;;;25.00;99.90;;;;;;5091966;28;20416;-65
2022/06/25 10:22:46;;;;;;;3.53;2.90;;;25.00;99.90;;;;;;5083771;28;20386;-65
2022/06/25 10:25:15;;;;;;;3.87;3.40;;;25.10;99.90;;;;;;5081964;28;20388;-66
2022/06/25 10:27:42;;;;;;;3.40;3.15;;;25.20;99.90;;;;;;5082823;28;20401;-65
2022/06/25 10:30:09;;;;;;;3.67;2.47;;;25.30;99.90;;;;;;5080893;28;20513;-66
2022/06/25 10:32:47;;;;;;;2.17;2.00;;;25.30;99.90;;;;;;5081739;28;20396;-65
2022/06/25 10:35:31;;;;;;;2.87;2.63;;;25.30;99.90;;;;;;5095896;28;20374;-65
2022/06/25 10:38:10;;;;;;;3.33;3.00;;;25.50;99.90;;;;;;5083542;28;20375;-65
2022/06/25 10:40:59;;;;;;;3.92;2.88;;;25.50;99.90;;;;;;5082503;28;20960;-65
2022/06/25 10:43:36;;;;;;;3.40;2.80;;;25.50;99.90;;;;;;5079960;28;20397;-65
2022/06/25 10:46:31;;;;;;;4.43;2.95;;;25.60;99.90;;;;;;5077852;28;20382;-65
2022/06/25 10:48:57;;;;;;;3.17;2.83;;;25.60;99.90;;;;;;5082866;28;20378;-65
2022/06/25 10:51:40;;;;;;;2.95;2.70;;;25.60;99.90;;;;;;5086379;28;20470;-65
2022/06/25 10:54:34;;;;;;;2.88;2.33;;;25.50;99.90;;;;;;5086850;28;20944;-65
2022/06/25 10:57:04;;;;;;;3.10;2.20;;;25.70;99.90;;;;;;5081637;28;20409;-65
2022/06/25 10:59:36;;;;;;;3.55;2.20;;;25.70;99.90;;;;;;5088391;28;20389;-65
2022/06/25 11:02:04;;;;;;;2.53;2.33;;;25.60;99.90;;;;;;5087819;28;20378;-66
2022/06/25 11:04:32;;;;;;;2.40;2.20;;;25.60;99.90;;;;;;5086426;28;20466;-65
2022/06/25 11:07:09;;;;;;;2.97;2.35;;;25.50;99.90;;;;;;5084375;28;20471;-65
2022/06/25 11:09:35;;;;;;;2.20;2.00;;;25.60;99.90;;;;;;5086419;28;20421;-65
2022/06/25 11:12:00;;;;;;;2.00;1.90;;;25.70;99.90;;;;;;5087471;28;20467;-65
2022/06/25 11:14:26;;;;;;;2.35;2.15;;;25.70;99.90;;;;;;5087424;28;20386;-65
2022/06/25 11:16:53;;;;;;;2.20;1.92;;;25.80;99.90;;;;;;5085057;28;20382;-65
2022/06/25 11:19:21;;;;;;;2.00;1.80;;;25.80;99.90;;;;;;5086488;28;20375;-65
2022/06/25 11:21:47;;;;;;;2.67;2.33;;;26.00;99.90;;;;;;5089920;28;20378;-65
2022/06/25 11:24:27;;;;;;;3.03;2.30;;;26.00;99.90;;;;;;5087072;28;20417;-65
2022/06/25 11:29:48;;;;;;;2.60;2.03;;;26.20;99.90;;;;;;5088496;28;20385;-65
2022/06/25 11:32:21;;;;;;;3.30;1.90;;;26.20;99.90;;;;;;5088170;28;20895;-65
2022/06/25 11:34:52;;;;;;;2.35;2.03;;;26.00;99.90;;;;;;5087412;28;20655;-65
2022/06/25 11:37:21;;;;;;;2.30;1.65;;;26.10;99.90;;;;;;5087656;28;20378;-65
2022/06/25 11:39:47;;;;;;;3.00;1.83;;;26.10;99.90;;;;;;5085352;28;20386;-64
2022/06/25 11:42:14;;;;;;;3.20;1.80;;;26.20;99.90;;;;;;5084958;28;20466;-64
2022/06/25 11:44:46;;;;;;;2.17;1.85;;;26.40;99.90;;;;;;5080136;28;20389;-64
2022/06/25 11:47:23;;;;;;;4.27;2.20;;;26.50;99.90;;;;;;5080165;28;20480;-64
2022/06/25 11:49:49;;;;;;;4.18;1.80;;;26.70;99.90;;;;;;5080257;28;20473;-64
2022/06/25 11:52:17;;;;;;;2.33;1.90;;;26.80;99.90;;;;;;5080324;28;20402;-65
2022/06/25 11:54:45;;;;;;;3.33;1.90;;;26.90;99.90;;;;;;5082452;28;20810;-64
2022/06/25 11:57:21;;;;;;;4.57;1.97;;;27.10;99.90;;;;;;5084038;28;20451;-65
2022/06/25 11:59:48;;;;;;;3.92;1.80;;;27.20;99.90;;;;;;5078874;28;20394;-64
2022/06/25 12:02:14;;;;;;;1.43;1.33;;;27.20;99.90;;;;;;5074039;28;20468;-64
2022/06/25 12:05:00;;;;;;;1.70;1.50;;;27.40;99.90;;;;;;5076395;28;20476;-65
2022/06/25 12:07:31;;;;;;;2.03;1.70;;;27.90;99.90;;;;;;5084190;28;20419;-65
2022/06/25 12:10:17;;;;;;;2.83;2.20;;;28.10;99.90;;;;;;5100889;28;20730;-65
2022/06/25 12:12:43;;;;;;;2.55;1.90;;;28.00;99.90;;;;;;5074681;28;20400;-65
2022/06/25 12:15:11;;;;;;;1.75;1.65;;;28.00;99.90;;;;;;5077359;27;21044;-65
2022/06/25 12:17:38;;;;;;;2.67;2.10;;;28.20;99.90;;;;;;5075971;28;20556;-64
2022/06/25 12:20:14;;;;;;;2.78;2.20;;;28.30;99.90;;;;;;5079862;28;20483;-64
2022/06/25 12:22:43;;;;;;;2.20;1.80;;;28.20;99.90;;;;;;5080472;28;20387;-64
2022/06/25 12:25:10;;;;;;;1.73;1.60;;;28.40;99.90;;;;;;5080135;28;20386;-64
2022/06/25 12:27:46;;;;;;;2.58;2.17;;;28.50;99.90;;;;;;5079465;28;20714;-64
2022/06/25 12:30:12;;;;;;;3.58;2.25;;;28.50;99.90;;;;;;5081537;28;20388;-65
2022/06/25 12:32:39;;;;;;;2.88;2.08;;;28.60;99.90;;;;;;5083160;28;20385;-64
2022/06/25 12:35:25;;;;;;;3.17;1.98;;;28.60;99.90;;;;;;5083153;28;20463;-64
2022/06/25 12:38:05;;;;;;;2.85;1.65;;;29.00;99.90;;;;;;5083071;28;20384;-64
2022/06/25 12:40:38;;;;;;;2.33;1.83;;;29.10;99.90;;;;;;5081993;28;20377;-65
2022/06/25 12:43:09;;;;;;;1.67;1.57;;;29.10;99.90;;;;;;5082246;28;20546;-65
2022/06/25 12:45:35;;;;;;;1.67;1.40;;;28.90;99.90;;;;;;5081910;28;20391;-65
2022/06/25 12:48:01;;;;;;;3.47;2.03;;;29.00;99.90;;;;;;5100347;28;20768;-64